sensor_id;sensor_type;location;lat;lon;timestamp;P1;durP1;ratioP1;P2;durP2;ratioP2
72813;SDS011;60945;48.516;-2.768;2024-03-23T00:55:57;7.45;;;6.75;;
72813;SDS011;60945;48.516;-2.768;2024-03-23T00:58:22;7.32;;;6.57;;
72813;SDS011;60945;48.516;-2.768;2024-03-23T01:00:48;9.05;;;7.15;;
72813;SDS011;60945;48.516;-2.768;2024-03-23T01:03:13;8.63;;;6.40;;
72813;SDS011;60945;48.516;-2.768;2024-03-23T01:05:39;9.93;;;6.65;;
72813;SDS011;60945;48.516;-2.768;2024-03-23T01:08:05;10.73;;;7.07;;
72813;SDS011;60945;48.516;-2.768;2024-03-23T01:10:31;9.82;;;6.45;;
72813;SDS011;60945;48.516;-2.768;2024-03-23T01:12:56;8.77;;;7.40;;
72813;SDS011;60945;48.516;-2.768;2024-03-23T01:15:22;7.63;;;6.93;;
72813;SDS011;60945;48.516;-2.768;2024-03-23T01:17:48;10.68;;;7.20;;
72813;SDS011;60945;48.516;-2.768;2024-03-23T01:20:13;10.63;;;7.25;;
72813;SDS011;60945;48.516;-2.768;2024-03-23T01:22:39;7.30;;;6.60;;
72813;SDS011;60945;48.516;-2.768;2024-03-23T01:25:05;9.43;;;7.25;;
72813;SDS011;60945;48.516;-2.768;2024-03-23T01:27:31;7.38;;;6.53;;
72813;SDS011;60945;48.516;-2.768;2024-03-23T01:29:56;10.70;;;6.95;;
72813;SDS011;60945;48.516;-2.768;2024-03-23T01:32:22;8.82;;;6.50;;
72813;SDS011;60945;48.516;-2.768;2024-03-23T01:34:47;8.05;;;7.15;;
72813;SDS011;60945;48.516;-2.768;2024-03-23T01:37:13;10.38;;;7.60;;
72813;SDS011;60945;48.516;-2.768;2024-03-23T01:39:39;9.45;;;7.22;;
72813;SDS011;60945;48.516;-2.768;2024-03-23T01:42:04;10.48;;;7.00;;
72813;SDS011;60945;48.516;-2.768;2024-03-23T01:44:30;8.23;;;6.78;;
72813;SDS011;60945;48.516;-2.768;2024-03-23T01:46:56;10.40;;;6.80;;
72813;SDS011;60945;48.516;-2.768;2024-03-23T01:49:21;10.48;;;7.20;;
72813;SDS011;60945;48.516;-2.768;2024-03-23T01:51:47;8.35;;;7.03;;
72813;SDS011;60945;48.516;-2.768;2024-03-23T01:54:13;8.75;;;6.93;;
72813;SDS011;60945;48.516;-2.768;2024-03-23T01:56:39;11.75;;;7.90;;
72813;SDS011;60945;48.516;-2.768;2024-03-23T01:59:05;8.32;;;7.60;;
72813;SDS011;60945;48.516;-2.768;2024-03-23T02:01:39;12.35;;;7.75;;
72813;SDS011;60945;48.516;-2.768;2024-03-23T02:04:06;8.57;;;7.43;;
72813;SDS011;60945;48.516;-2.768;2024-03-23T02:06:32;7.75;;;6.80;;
72813;SDS011;60945;48.516;-2.768;2024-03-23T02:08:58;9.77;;;7.80;;
72813;SDS011;60945;48.516;-2.768;2024-03-23T02:11:24;12.55;;;7.72;;
72813;SDS011;60945;48.516;-2.768;2024-03-23T02:13:50;9.38;;;8.40;;
72813;SDS011;60945;48.516;-2.768;2024-03-23T02:16:18;9.43;;;8.63;;
72813;SDS011;60945;48.516;-2.768;2024-03-23T02:18:44;8.73;;;7.80;;
72813;SDS011;60945;48.516;-2.768;2024-03-23T02:21:09;8.88;;;7.18;;
72813;SDS011;60945;48.516;-2.768;2024-03-23T02:23:35;8.52;;;7.72;;
72813;SDS011;60945;48.516;-2.768;2024-03-23T02:26:01;8.43;;;7.68;;
72813;SDS011;60945;48.516;-2.768;2024-03-23T02:28:27;8.65;;;7.72;;
72813;SDS011;60945;48.516;-2.768;2024-03-23T02:30:52;8.40;;;7.60;;
72813;SDS011;60945;48.516;-2.768;2024-03-23T02:33:18;8.95;;;7.75;;
72813;SDS011;60945;48.516;-2.768;2024-03-23T02:35:44;11.35;;;8.10;;
72813;SDS011;60945;48.516;-2.768;2024-03-23T02:38:10;8.98;;;8.20;;
72813;SDS011;60945;48.516;-2.768;2024-03-23T02:40:36;10.02;;;7.90;;
72813;SDS011;60945;48.516;-2.768;2024-03-23T02:43:02;8.40;;;7.60;;
72813;SDS011;60945;48.516;-2.768;2024-03-23T02:45:28;10.43;;;7.60;;
72813;SDS011;60945;48.516;-2.768;2024-03-23T02:47:54;8.95;;;8.02;;
72813;SDS011;60945;48.516;-2.768;2024-03-23T02:50:20;9.35;;;7.95;;
72813;SDS011;60945;48.516;-2.768;2024-03-23T02:52:46;9.00;;;8.07;;
72813;SDS011;60945;48.516;-2.768;2024-03-23T02:55:12;9.35;;;7.38;;
72813;SDS011;60945;48.516;-2.768;2024-03-23T02:57:38;8.27;;;7.32;;
72813;SDS011;60945;48.516;-2.768;2024-03-23T03:00:04;8.52;;;7.35;;
72813;SDS011;60945;48.516;-2.768;2024-03-23T03:02:31;8.50;;;7.60;;
72813;SDS011;60945;48.516;-2.768;2024-03-23T03:04:57;11.13;;;8.10;;
72813;SDS011;60945;48.516;-2.768;2024-03-23T03:07:23;8.30;;;7.30;;
72813;SDS011;60945;48.516;-2.768;2024-03-23T03:09:48;7.50;;;7.00;;
72813;SDS011;60945;48.516;-2.768;2024-03-23T03:12:14;7.70;;;7.20;;
72813;SDS011;60945;48.516;-2.768;2024-03-23T03:14:40;8.30;;;7.47;;
72813;SDS011;60945;48.516;-2.768;2024-03-23T03:17:05;8.48;;;7.88;;
72813;SDS011;60945;48.516;-2.768;2024-03-23T03:19:31;7.72;;;7.18;;
72813;SDS011;60945;48.516;-2.768;2024-03-23T03:21:57;8.25;;;7.28;;
72813;SDS011;60945;48.516;-2.768;2024-03-23T03:24:23;7.53;;;7.00;;
72813;SDS011;60945;48.516;-2.768;2024-03-23T03:26:48;7.35;;;6.78;;
72813;SDS011;60945;48.516;-2.768;2024-03-23T03:29:15;8.00;;;7.40;;
72813;SDS011;60945;48.516;-2.768;2024-03-23T03:31:40;8.10;;;7.40;;
72813;SDS011;60945;48.516;-2.768;2024-03-23T03:34:06;10.95;;;7.80;;
72813;SDS011;60945;48.516;-2.768;2024-03-23T03:36:35;8.63;;;7.72;;
72813;SDS011;60945;48.516;-2.768;2024-03-23T03:39:01;8.07;;;7.25;;
72813;SDS011;60945;48.516;-2.768;2024-03-23T03:41:28;8.23;;;7.43;;
72813;SDS011;60945;48.516;-2.768;2024-03-23T03:43:54;8.45;;;7.65;;
72813;SDS011;60945;48.516;-2.768;2024-03-23T03:46:20;8.13;;;7.50;;
72813;SDS011;60945;48.516;-2.768;2024-03-23T03:48:46;7.53;;;7.00;;
72813;SDS011;60945;48.516;-2.768;2024-03-23T03:51:13;8.60;;;7.70;;
72813;SDS011;60945;48.516;-2.768;2024-03-23T03:53:39;8.05;;;7.25;;
72813;SDS011;60945;48.516;-2.768;2024-03-23T03:56:04;9.85;;;8.20;;
72813;SDS011;60945;48.516;-2.768;2024-03-23T03:58:30;7.88;;;7.25;;
72813;SDS011;60945;48.516;-2.768;2024-03-23T04:00:56;8.57;;;7.80;;
72813;SDS011;60945;48.516;-2.768;2024-03-23T04:03:21;8.75;;;8.05;;
72813;SDS011;60945;48.516;-2.768;2024-03-23T04:05:53;8.15;;;7.50;;
72813;SDS011;60945;48.516;-2.768;2024-03-23T04:08:19;8.20;;;7.60;;
72813;SDS011;60945;48.516;-2.768;2024-03-23T04:10:45;8.80;;;8.18;;
72813;SDS011;60945;48.516;-2.768;2024-03-23T04:13:14;8.63;;;7.82;;
72813;SDS011;60945;48.516;-2.768;2024-03-23T04:15:40;8.57;;;7.78;;
72813;SDS011;60945;48.516;-2.768;2024-03-23T04:18:06;8.35;;;7.57;;
72813;SDS011;60945;48.516;-2.768;2024-03-23T04:20:32;9.70;;;7.90;;
72813;SDS011;60945;48.516;-2.768;2024-03-23T04:22:58;8.35;;;7.75;;
72813;SDS011;60945;48.516;-2.768;2024-03-23T04:25:24;8.23;;;7.53;;
72813;SDS011;60945;48.516;-2.768;2024-03-23T04:27:50;9.63;;;7.85;;
72813;SDS011;60945;48.516;-2.768;2024-03-23T04:30:16;8.30;;;7.65;;
72813;SDS011;60945;48.516;-2.768;2024-03-23T04:32:42;12.82;;;8.55;;
72813;SDS011;60945;48.516;-2.768;2024-03-23T04:35:08;8.07;;;7.38;;
72813;SDS011;60945;48.516;-2.768;2024-03-23T04:37:38;8.52;;;7.72;;
72813;SDS011;60945;48.516;-2.768;2024-03-23T04:40:06;8.57;;;7.75;;
72813;SDS011;60945;48.516;-2.768;2024-03-23T04:42:32;7.93;;;7.40;;
72813;SDS011;60945;48.516;-2.768;2024-03-23T04:44:58;8.20;;;7.50;;
72813;SDS011;60945;48.516;-2.768;2024-03-23T04:47:24;9.20;;;8.43;;
72813;SDS011;60945;48.516;-2.768;2024-03-23T04:49:50;8.35;;;7.57;;
72813;SDS011;60945;48.516;-2.768;2024-03-23T04:52:16;8.32;;;7.63;;
72813;SDS011;60945;48.516;-2.768;2024-03-23T04:54:42;8.25;;;7.50;;
72813;SDS011;60945;48.516;-2.768;2024-03-23T04:57:08;7.60;;;7.15;;
72813;SDS011;60945;48.516;-2.768;2024-03-23T04:59:34;7.72;;;7.22;;
72813;SDS011;60945;48.516;-2.768;2024-03-23T05:02:00;9.38;;;7.45;;
72813;SDS011;60945;48.516;-2.768;2024-03-23T05:04:26;11.27;;;8.05;;
72813;SDS011;60945;48.516;-2.768;2024-03-23T05:06:52;7.85;;;7.25;;
72813;SDS011;60945;48.516;-2.768;2024-03-23T05:09:17;8.82;;;7.95;;
72813;SDS011;60945;48.516;-2.768;2024-03-23T05:11:43;8.35;;;7.78;;
72813;SDS011;60945;48.516;-2.768;2024-03-23T05:14:10;8.85;;;8.00;;
72813;SDS011;60945;48.516;-2.768;2024-03-23T05:16:38;8.65;;;7.80;;
72813;SDS011;60945;48.516;-2.768;2024-03-23T05:19:03;8.18;;;7.45;;
72813;SDS011;60945;48.516;-2.768;2024-03-23T05:21:29;7.88;;;7.25;;
72813;SDS011;60945;48.516;-2.768;2024-03-23T05:23:55;9.90;;;7.18;;
72813;SDS011;60945;48.516;-2.768;2024-03-23T05:26:21;8.10;;;7.40;;
72813;SDS011;60945;48.516;-2.768;2024-03-23T05:28:47;8.75;;;8.10;;
72813;SDS011;60945;48.516;-2.768;2024-03-23T05:31:22;8.70;;;8.07;;
72813;SDS011;60945;48.516;-2.768;2024-03-23T05:33:48;9.57;;;8.63;;
72813;SDS011;60945;48.516;-2.768;2024-03-23T05:36:14;8.77;;;7.72;;
72813;SDS011;60945;48.516;-2.768;2024-03-23T05:38:39;8.90;;;8.05;;
72813;SDS011;60945;48.516;-2.768;2024-03-23T05:41:05;8.63;;;7.95;;
72813;SDS011;60945;48.516;-2.768;2024-03-23T05:43:31;9.30;;;7.72;;
72813;SDS011;60945;48.516;-2.768;2024-03-23T05:45:58;8.40;;;7.55;;
72813;SDS011;60945;48.516;-2.768;2024-03-23T05:48:25;8.93;;;8.13;;
72813;SDS011;60945;48.516;-2.768;2024-03-23T05:50:51;9.93;;;8.98;;
72813;SDS011;60945;48.516;-2.768;2024-03-23T05:53:18;8.85;;;8.02;;
72813;SDS011;60945;48.516;-2.768;2024-03-23T05:55:47;8.25;;;7.60;;
72813;SDS011;60945;48.516;-2.768;2024-03-23T05:58:14;8.88;;;8.15;;
72813;SDS011;60945;48.516;-2.768;2024-03-23T06:00:41;9.35;;;8.65;;
72813;SDS011;60945;48.516;-2.768;2024-03-23T06:03:09;8.65;;;8.10;;
72813;SDS011;60945;48.516;-2.768;2024-03-23T06:05:38;8.80;;;8.20;;
72813;SDS011;60945;48.516;-2.768;2024-03-23T06:08:04;9.70;;;9.07;;
72813;SDS011;60945;48.516;-2.768;2024-03-23T06:10:31;9.95;;;8.32;;
72813;SDS011;60945;48.516;-2.768;2024-03-23T06:12:57;10.35;;;8.40;;
72813;SDS011;60945;48.516;-2.768;2024-03-23T06:15:24;8.82;;;8.13;;
72813;SDS011;60945;48.516;-2.768;2024-03-23T06:17:50;9.43;;;8.48;;
72813;SDS011;60945;48.516;-2.768;2024-03-23T06:20:15;8.73;;;7.97;;
72813;SDS011;60945;48.516;-2.768;2024-03-23T06:22:41;9.27;;;8.27;;
72813;SDS011;60945;48.516;-2.768;2024-03-23T06:25:07;9.23;;;8.50;;
72813;SDS011;60945;48.516;-2.768;2024-03-23T06:27:33;9.60;;;8.45;;
72813;SDS011;60945;48.516;-2.768;2024-03-23T06:29:59;13.43;;;8.30;;
72813;SDS011;60945;48.516;-2.768;2024-03-23T06:32:25;12.75;;;8.30;;
72813;SDS011;60945;48.516;-2.768;2024-03-23T06:34:51;9.30;;;8.40;;
72813;SDS011;60945;48.516;-2.768;2024-03-23T06:37:17;8.85;;;8.00;;
72813;SDS011;60945;48.516;-2.768;2024-03-23T06:39:42;9.68;;;8.88;;
72813;SDS011;60945;48.516;-2.768;2024-03-23T06:42:11;8.90;;;8.23;;
72813;SDS011;60945;48.516;-2.768;2024-03-23T06:44:36;9.20;;;8.50;;
72813;SDS011;60945;48.516;-2.768;2024-03-23T06:47:02;11.93;;;8.70;;
72813;SDS011;60945;48.516;-2.768;2024-03-23T06:49:27;8.95;;;8.30;;
72813;SDS011;60945;48.516;-2.768;2024-03-23T06:51:53;8.75;;;8.02;;
72813;SDS011;60945;48.516;-2.768;2024-03-23T06:54:19;8.80;;;7.85;;
72813;SDS011;60945;48.516;-2.768;2024-03-23T06:56:45;9.10;;;8.18;;
72813;SDS011;60945;48.516;-2.768;2024-03-23T06:59:11;8.82;;;8.13;;
72813;SDS011;60945;48.516;-2.768;2024-03-23T07:01:36;8.93;;;8.10;;
72813;SDS011;60945;48.516;-2.768;2024-03-23T07:04:02;9.52;;;8.45;;
72813;SDS011;60945;48.516;-2.768;2024-03-23T07:06:29;9.82;;;8.40;;
72813;SDS011;60945;48.516;-2.768;2024-03-23T07:08:55;8.27;;;7.68;;
72813;SDS011;60945;48.516;-2.768;2024-03-23T07:11:21;9.65;;;8.38;;
72813;SDS011;60945;48.516;-2.768;2024-03-23T07:13:51;8.50;;;7.88;;
72813;SDS011;60945;48.516;-2.768;2024-03-23T07:16:17;9.32;;;7.97;;
72813;SDS011;60945;48.516;-2.768;2024-03-23T07:18:43;8.63;;;7.75;;
72813;SDS011;60945;48.516;-2.768;2024-03-23T07:21:09;9.18;;;8.30;;
72813;SDS011;60945;48.516;-2.768;2024-03-23T07:23:34;9.18;;;8.40;;
72813;SDS011;60945;48.516;-2.768;2024-03-23T07:26:04;8.60;;;7.90;;
72813;SDS011;60945;48.516;-2.768;2024-03-23T07:28:30;8.88;;;7.80;;
72813;SDS011;60945;48.516;-2.768;2024-03-23T07:31:04;8.43;;;7.82;;
72813;SDS011;60945;48.516;-2.768;2024-03-23T07:33:32;8.00;;;7.30;;
72813;SDS011;60945;48.516;-2.768;2024-03-23T07:35:58;13.57;;;7.80;;
72813;SDS011;60945;48.516;-2.768;2024-03-23T07:38:27;9.18;;;7.60;;
72813;SDS011;60945;48.516;-2.768;2024-03-23T07:41:06;12.30;;;8.30;;
72813;SDS011;60945;48.516;-2.768;2024-03-23T07:43:33;9.95;;;7.72;;
72813;SDS011;60945;48.516;-2.768;2024-03-23T07:46:00;9.48;;;8.23;;
72813;SDS011;60945;48.516;-2.768;2024-03-23T07:48:26;9.73;;;8.82;;
72813;SDS011;60945;48.516;-2.768;2024-03-23T07:50:57;8.52;;;7.70;;
72813;SDS011;60945;48.516;-2.768;2024-03-23T07:53:36;9.02;;;7.72;;
72813;SDS011;60945;48.516;-2.768;2024-03-23T07:56:03;9.25;;;7.93;;
72813;SDS011;60945;48.516;-2.768;2024-03-23T07:58:29;9.52;;;8.30;;
72813;SDS011;60945;48.516;-2.768;2024-03-23T08:00:55;9.40;;;7.70;;
72813;SDS011;60945;48.516;-2.768;2024-03-23T08:03:21;8.73;;;7.93;;
72813;SDS011;60945;48.516;-2.768;2024-03-23T08:05:48;9.65;;;7.57;;
72813;SDS011;60945;48.516;-2.768;2024-03-23T08:08:13;8.40;;;7.70;;
72813;SDS011;60945;48.516;-2.768;2024-03-23T08:10:49;9.30;;;8.02;;
72813;SDS011;60945;48.516;-2.768;2024-03-23T08:13:15;9.40;;;8.43;;
72813;SDS011;60945;48.516;-2.768;2024-03-23T08:15:41;8.90;;;8.10;;
72813;SDS011;60945;48.516;-2.768;2024-03-23T08:18:07;8.93;;;8.13;;
72813;SDS011;60945;48.516;-2.768;2024-03-23T08:20:33;8.60;;;7.72;;
72813;SDS011;60945;48.516;-2.768;2024-03-23T08:22:59;9.13;;;7.63;;
72813;SDS011;60945;48.516;-2.768;2024-03-23T08:25:24;8.82;;;7.57;;
72813;SDS011;60945;48.516;-2.768;2024-03-23T08:27:50;8.38;;;7.57;;
72813;SDS011;60945;48.516;-2.768;2024-03-23T08:30:16;9.35;;;8.30;;
72813;SDS011;60945;48.516;-2.768;2024-03-23T08:32:42;9.50;;;7.72;;
72813;SDS011;60945;48.516;-2.768;2024-03-23T08:35:07;9.77;;;7.95;;
72813;SDS011;60945;48.516;-2.768;2024-03-23T08:37:33;8.57;;;7.30;;
72813;SDS011;60945;48.516;-2.768;2024-03-23T08:39:59;8.95;;;8.05;;
72813;SDS011;60945;48.516;-2.768;2024-03-23T08:42:24;8.65;;;7.60;;
72813;SDS011;60945;48.516;-2.768;2024-03-23T08:44:50;8.18;;;7.28;;
72813;SDS011;60945;48.516;-2.768;2024-03-23T08:47:16;8.75;;;7.80;;
72813;SDS011;60945;48.516;-2.768;2024-03-23T08:49:41;8.15;;;7.35;;
72813;SDS011;60945;48.516;-2.768;2024-03-23T08:52:08;8.25;;;7.55;;
72813;SDS011;60945;48.516;-2.768;2024-03-23T08:54:33;8.27;;;7.47;;
72813;SDS011;60945;48.516;-2.768;2024-03-23T08:56:59;9.20;;;8.18;;
72813;SDS011;60945;48.516;-2.768;2024-03-23T08:59:25;8.55;;;7.85;;
72813;SDS011;60945;48.516;-2.768;2024-03-23T09:01:51;8.40;;;7.55;;
72813;SDS011;60945;48.516;-2.768;2024-03-23T09:04:17;8.02;;;7.43;;
72813;SDS011;60945;48.516;-2.768;2024-03-23T09:06:43;8.23;;;7.53;;
72813;SDS011;60945;48.516;-2.768;2024-03-23T09:09:08;9.02;;;8.23;;
72813;SDS011;60945;48.516;-2.768;2024-03-23T09:11:34;10.85;;;8.57;;
72813;SDS011;60945;48.516;-2.768;2024-03-23T09:14:00;8.57;;;7.90;;
72813;SDS011;60945;48.516;-2.768;2024-03-23T09:16:25;8.05;;;7.45;;
72813;SDS011;60945;48.516;-2.768;2024-03-23T09:18:51;9.10;;;8.30;;
72813;SDS011;60945;48.516;-2.768;2024-03-23T09:21:17;9.00;;;8.10;;
72813;SDS011;60945;48.516;-2.768;2024-03-23T09:23:45;8.15;;;7.43;;
72813;SDS011;60945;48.516;-2.768;2024-03-23T09:26:11;8.75;;;7.95;;
72813;SDS011;60945;48.516;-2.768;2024-03-23T09:28:37;9.18;;;8.38;;
72813;SDS011;60945;48.516;-2.768;2024-03-23T09:31:03;9.07;;;8.27;;
72813;SDS011;60945;48.516;-2.768;2024-03-23T09:33:30;8.90;;;8.10;;
72813;SDS011;60945;48.516;-2.768;2024-03-23T09:35:56;8.35;;;6.97;;
72813;SDS011;60945;48.516;-2.768;2024-03-23T09:38:22;8.40;;;7.60;;
72813;SDS011;60945;48.516;-2.768;2024-03-23T09:40:49;7.63;;;7.00;;
72813;SDS011;60945;48.516;-2.768;2024-03-23T09:43:18;7.90;;;7.10;;
72813;SDS011;60945;48.516;-2.768;2024-03-23T09:45:44;7.93;;;7.20;;
72813;SDS011;60945;48.516;-2.768;2024-03-23T09:48:11;8.02;;;7.32;;
72813;SDS011;60945;48.516;-2.768;2024-03-23T09:53:04;8.55;;;7.38;;
72813;SDS011;60945;48.516;-2.768;2024-03-23T09:55:31;8.27;;;7.53;;
72813;SDS011;60945;48.516;-2.768;2024-03-23T09:57:57;9.50;;;8.25;;
72813;SDS011;60945;48.516;-2.768;2024-03-23T10:00:23;8.27;;;7.45;;
72813;SDS011;60945;48.516;-2.768;2024-03-23T10:02:48;8.40;;;7.60;;
72813;SDS011;60945;48.516;-2.768;2024-03-23T10:05:23;8.38;;;7.47;;
72813;SDS011;60945;48.516;-2.768;2024-03-23T10:07:50;8.65;;;7.75;;
72813;SDS011;60945;48.516;-2.768;2024-03-23T10:10:16;8.07;;;7.40;;
72813;SDS011;60945;48.516;-2.768;2024-03-23T10:12:45;8.52;;;7.80;;
72813;SDS011;60945;48.516;-2.768;2024-03-23T10:15:17;8.68;;;7.97;;
72813;SDS011;60945;48.516;-2.768;2024-03-23T10:17:44;8.80;;;8.20;;
72813;SDS011;60945;48.516;-2.768;2024-03-23T10:20:10;8.60;;;7.93;;
72813;SDS011;60945;48.516;-2.768;2024-03-23T10:22:39;8.57;;;7.80;;
72813;SDS011;60945;48.516;-2.768;2024-03-23T10:25:08;8.27;;;7.57;;
72813;SDS011;60945;48.516;-2.768;2024-03-23T10:27:35;9.25;;;8.45;;
72813;SDS011;60945;48.516;-2.768;2024-03-23T10:30:10;9.13;;;8.43;;
72813;SDS011;60945;48.516;-2.768;2024-03-23T10:32:41;8.95;;;8.15;;
72813;SDS011;60945;48.516;-2.768;2024-03-23T10:35:19;8.65;;;7.90;;
72813;SDS011;60945;48.516;-2.768;2024-03-23T10:37:48;8.93;;;8.07;;
72813;SDS011;60945;48.516;-2.768;2024-03-23T10:40:16;8.05;;;7.30;;
72813;SDS011;60945;48.516;-2.768;2024-03-23T10:42:43;8.13;;;7.32;;
72813;SDS011;60945;48.516;-2.768;2024-03-23T10:45:09;8.60;;;8.00;;
72813;SDS011;60945;48.516;-2.768;2024-03-23T10:47:35;8.10;;;7.60;;
72813;SDS011;60945;48.516;-2.768;2024-03-23T10:50:05;7.53;;;7.03;;
72813;SDS011;60945;48.516;-2.768;2024-03-23T10:52:34;7.85;;;7.45;;
72813;SDS011;60945;48.516;-2.768;2024-03-23T10:55:01;7.35;;;6.75;;
72813;SDS011;60945;48.516;-2.768;2024-03-23T10:57:38;7.82;;;7.22;;
72813;SDS011;60945;48.516;-2.768;2024-03-23T11:00:07;7.47;;;6.97;;
72813;SDS011;60945;48.516;-2.768;2024-03-23T11:02:35;7.53;;;6.82;;
72813;SDS011;60945;48.516;-2.768;2024-03-23T11:05:01;7.05;;;6.63;;
72813;SDS011;60945;48.516;-2.768;2024-03-23T11:09:53;7.07;;;6.60;;
72813;SDS011;60945;48.516;-2.768;2024-03-23T11:14:48;7.15;;;6.75;;
72813;SDS011;60945;48.516;-2.768;2024-03-23T11:17:29;7.13;;;6.53;;
72813;SDS011;60945;48.516;-2.768;2024-03-23T11:19:56;7.57;;;6.70;;
72813;SDS011;60945;48.516;-2.768;2024-03-23T11:27:44;8.45;;;7.72;;
72813;SDS011;60945;48.516;-2.768;2024-03-23T11:32:41;9.27;;;8.45;;
72813;SDS011;60945;48.516;-2.768;2024-03-23T11:35:07;8.45;;;7.72;;
72813;SDS011;60945;48.516;-2.768;2024-03-23T11:37:35;8.52;;;7.78;;
72813;SDS011;60945;48.516;-2.768;2024-03-23T11:40:16;8.38;;;7.70;;
72813;SDS011;60945;48.516;-2.768;2024-03-23T11:42:45;9.57;;;8.63;;
72813;SDS011;60945;48.516;-2.768;2024-03-23T11:45:10;8.88;;;8.15;;
72813;SDS011;60945;48.516;-2.768;2024-03-23T11:47:37;8.63;;;7.90;;
72813;SDS011;60945;48.516;-2.768;2024-03-23T11:50:02;8.73;;;7.57;;
72813;SDS011;60945;48.516;-2.768;2024-03-23T11:52:29;7.65;;;6.90;;
72813;SDS011;60945;48.516;-2.768;2024-03-23T11:55:04;7.65;;;7.13;;
72813;SDS011;60945;48.516;-2.768;2024-03-23T11:57:32;7.50;;;6.90;;
72813;SDS011;60945;48.516;-2.768;2024-03-23T11:59:58;7.90;;;7.20;;
72813;SDS011;60945;48.516;-2.768;2024-03-23T12:02:24;8.05;;;7.05;;
72813;SDS011;60945;48.516;-2.768;2024-03-23T12:04:50;7.32;;;6.72;;
72813;SDS011;60945;48.516;-2.768;2024-03-23T12:07:16;6.95;;;6.40;;
72813;SDS011;60945;48.516;-2.768;2024-03-23T12:09:44;7.65;;;7.03;;
72813;SDS011;60945;48.516;-2.768;2024-03-23T12:12:13;7.13;;;6.63;;
72813;SDS011;60945;48.516;-2.768;2024-03-23T12:14:44;7.63;;;7.00;;
72813;SDS011;60945;48.516;-2.768;2024-03-23T12:19:36;6.97;;;6.47;;
72813;SDS011;60945;48.516;-2.768;2024-03-23T12:22:05;6.25;;;5.80;;
72813;SDS011;60945;48.516;-2.768;2024-03-23T12:24:32;6.32;;;5.78;;
72813;SDS011;60945;48.516;-2.768;2024-03-23T12:26:59;6.50;;;6.00;;
72813;SDS011;60945;48.516;-2.768;2024-03-23T12:29:27;7.07;;;6.53;;
72813;SDS011;60945;48.516;-2.768;2024-03-23T12:31:53;6.70;;;6.20;;
72813;SDS011;60945;48.516;-2.768;2024-03-23T12:34:19;6.60;;;6.13;;
72813;SDS011;60945;48.516;-2.768;2024-03-23T12:36:45;6.82;;;6.32;;
72813;SDS011;60945;48.516;-2.768;2024-03-23T12:39:10;6.03;;;5.53;;
72813;SDS011;60945;48.516;-2.768;2024-03-23T12:41:36;6.70;;;6.13;;
72813;SDS011;60945;48.516;-2.768;2024-03-23T12:44:01;6.55;;;5.88;;
72813;SDS011;60945;48.516;-2.768;2024-03-23T12:46:27;6.70;;;6.07;;
72813;SDS011;60945;48.516;-2.768;2024-03-23T12:48:53;7.18;;;6.53;;
72813;SDS011;60945;48.516;-2.768;2024-03-23T12:51:18;6.78;;;6.18;;
72813;SDS011;60945;48.516;-2.768;2024-03-23T12:53:44;6.93;;;6.15;;
72813;SDS011;60945;48.516;-2.768;2024-03-23T12:56:12;7.43;;;6.93;;
72813;SDS011;60945;48.516;-2.768;2024-03-23T12:58:38;6.35;;;5.90;;
72813;SDS011;60945;48.516;-2.768;2024-03-23T13:01:03;7.88;;;5.70;;
72813;SDS011;60945;48.516;-2.768;2024-03-23T13:03:31;6.15;;;5.70;;
72813;SDS011;60945;48.516;-2.768;2024-03-23T13:05:56;6.68;;;6.18;;
72813;SDS011;60945;48.516;-2.768;2024-03-23T13:08:22;7.20;;;6.53;;
72813;SDS011;60945;48.516;-2.768;2024-03-23T13:10:51;7.28;;;6.75;;
72813;SDS011;60945;48.516;-2.768;2024-03-23T13:13:17;7.78;;;6.97;;
72813;SDS011;60945;48.516;-2.768;2024-03-23T13:15:49;7.20;;;6.55;;
72813;SDS011;60945;48.516;-2.768;2024-03-23T13:18:17;7.47;;;6.97;;
72813;SDS011;60945;48.516;-2.768;2024-03-23T13:20:43;6.97;;;6.47;;
72813;SDS011;60945;48.516;-2.768;2024-03-23T13:23:09;6.97;;;6.47;;
72813;SDS011;60945;48.516;-2.768;2024-03-23T13:25:34;7.25;;;6.57;;
72813;SDS011;60945;48.516;-2.768;2024-03-23T13:28:01;7.57;;;6.97;;
72813;SDS011;60945;48.516;-2.768;2024-03-23T13:30:27;7.07;;;6.47;;
72813;SDS011;60945;48.516;-2.768;2024-03-23T13:32:53;7.20;;;6.53;;
72813;SDS011;60945;48.516;-2.768;2024-03-23T13:35:18;20.35;;;9.13;;
72813;SDS011;60945;48.516;-2.768;2024-03-23T13:37:44;51.63;;;12.13;;
72813;SDS011;60945;48.516;-2.768;2024-03-23T13:40:10;8.02;;;7.43;;
72813;SDS011;60945;48.516;-2.768;2024-03-23T13:42:36;6.80;;;6.50;;
72813;SDS011;60945;48.516;-2.768;2024-03-23T13:45:02;7.65;;;7.15;;
72813;SDS011;60945;48.516;-2.768;2024-03-23T13:47:28;7.38;;;6.97;;
72813;SDS011;60945;48.516;-2.768;2024-03-23T13:49:53;7.75;;;7.20;;
72813;SDS011;60945;48.516;-2.768;2024-03-23T13:52:19;8.10;;;7.60;;
72813;SDS011;60945;48.516;-2.768;2024-03-23T13:54:48;8.02;;;7.45;;
72813;SDS011;60945;48.516;-2.768;2024-03-23T13:57:14;8.45;;;7.88;;
72813;SDS011;60945;48.516;-2.768;2024-03-23T13:59:39;9.05;;;8.35;;
72813;SDS011;60945;48.516;-2.768;2024-03-23T14:02:05;8.90;;;8.30;;
72813;SDS011;60945;48.516;-2.768;2024-03-23T14:04:31;8.70;;;8.00;;
72813;SDS011;60945;48.516;-2.768;2024-03-23T14:06:56;9.20;;;8.45;;
72813;SDS011;60945;48.516;-2.768;2024-03-23T14:09:23;9.32;;;8.73;;
72813;SDS011;60945;48.516;-2.768;2024-03-23T14:11:50;8.55;;;7.85;;
72813;SDS011;60945;48.516;-2.768;2024-03-23T14:14:16;8.65;;;7.95;;
72813;SDS011;60945;48.516;-2.768;2024-03-23T14:16:43;8.73;;;8.07;;
72813;SDS011;60945;48.516;-2.768;2024-03-23T14:19:09;8.93;;;8.30;;
72813;SDS011;60945;48.516;-2.768;2024-03-23T14:21:35;8.88;;;8.15;;
72813;SDS011;60945;48.516;-2.768;2024-03-23T14:24:00;9.02;;;8.32;;
72813;SDS011;60945;48.516;-2.768;2024-03-23T14:26:27;8.70;;;8.10;;
72813;SDS011;60945;48.516;-2.768;2024-03-23T14:28:53;8.38;;;7.57;;
72813;SDS011;60945;48.516;-2.768;2024-03-23T14:31:18;7.82;;;7.15;;
72813;SDS011;60945;48.516;-2.768;2024-03-23T14:33:44;8.57;;;7.53;;
72813;SDS011;60945;48.516;-2.768;2024-03-23T14:36:13;7.72;;;7.20;;
72813;SDS011;60945;48.516;-2.768;2024-03-23T14:38:39;8.32;;;7.80;;
72813;SDS011;60945;48.516;-2.768;2024-03-23T14:41:05;7.60;;;7.10;;
72813;SDS011;60945;48.516;-2.768;2024-03-23T14:43:30;7.97;;;7.47;;
72813;SDS011;60945;48.516;-2.768;2024-03-23T14:46:12;8.50;;;8.00;;
72813;SDS011;60945;48.516;-2.768;2024-03-23T14:48:39;8.88;;;8.18;;
72813;SDS011;60945;48.516;-2.768;2024-03-23T14:51:06;8.85;;;8.25;;
72813;SDS011;60945;48.516;-2.768;2024-03-23T14:53:33;9.38;;;8.57;;
72813;SDS011;60945;48.516;-2.768;2024-03-23T14:56:06;9.60;;;8.70;;
72813;SDS011;60945;48.516;-2.768;2024-03-23T14:58:33;9.00;;;8.30;;
72813;SDS011;60945;48.516;-2.768;2024-03-23T15:01:05;9.27;;;8.57;;
72813;SDS011;60945;48.516;-2.768;2024-03-23T15:03:37;8.27;;;7.60;;
72813;SDS011;60945;48.516;-2.768;2024-03-23T15:06:08;9.50;;;8.70;;
72813;SDS011;60945;48.516;-2.768;2024-03-23T15:08:36;9.85;;;8.93;;
72813;SDS011;60945;48.516;-2.768;2024-03-23T15:11:03;8.73;;;7.82;;
72813;SDS011;60945;48.516;-2.768;2024-03-23T15:13:35;8.68;;;7.97;;
72813;SDS011;60945;48.516;-2.768;2024-03-23T15:16:01;8.40;;;7.60;;
72813;SDS011;60945;48.516;-2.768;2024-03-23T15:18:30;8.88;;;8.07;;
72813;SDS011;60945;48.516;-2.768;2024-03-23T15:20:58;9.75;;;7.80;;
72813;SDS011;60945;48.516;-2.768;2024-03-23T15:23:28;8.57;;;7.75;;
72813;SDS011;60945;48.516;-2.768;2024-03-23T15:25:57;8.57;;;7.70;;
72813;SDS011;60945;48.516;-2.768;2024-03-23T15:28:24;8.05;;;7.05;;
72813;SDS011;60945;48.516;-2.768;2024-03-23T15:31:09;9.63;;;7.25;;
72813;SDS011;60945;48.516;-2.768;2024-03-23T15:33:35;8.27;;;7.40;;
72813;SDS011;60945;48.516;-2.768;2024-03-23T15:36:01;7.47;;;6.88;;
72813;SDS011;60945;48.516;-2.768;2024-03-23T15:38:28;8.10;;;7.30;;
72813;SDS011;60945;48.516;-2.768;2024-03-23T15:40:56;7.60;;;6.60;;
72813;SDS011;60945;48.516;-2.768;2024-03-23T15:43:22;7.72;;;7.03;;